Birch Bay, Washington
Current Conditions -  °F | °C
As of 1:53 PM on Thursday 23 Oct 2014 (Local Time) from KBLI Reporting Station
Scattered Clouds Scattered Clouds  
Wind Chill: 55°   Ceiling: Unl
Heat Index: 55°   Visibility: 10mi
Dew Point: 49°   Wind: 15mph
Humidity: 80%   Direction: 160°SSE
Pressure: 29.76"   Gusts: 21mph
Location:  48.9504°N, 122.711°W
Report Text: KBLI 232053Z 16013G18KT 10SM FEW016 SCT110 13/09 A2976 RMK AO2 RAE45 SLP085 P0000 60000 T01280094 51007
Loading
Personal Weather Stations






























Interactive Weather Map
Tropical Storm Tracking
New forecast layout! Learn more

10-Day Weather Forecast

Advertisements
Track Severe Weather on mobile